sensor_id;sensor_type;location;lat;lon;timestamp;P1;durP1;ratioP1;P2;durP2;ratioP2
46022;SDS011;31756;47.936;16.224;2022-07-22T00:00:06;8.35;;;7.63;;
46022;SDS011;31756;47.936;16.224;2022-07-22T00:02:32;8.15;;;7.30;;
46022;SDS011;31756;47.936;16.224;2022-07-22T00:04:57;9.00;;;8.23;;
46022;SDS011;31756;47.936;16.224;2022-07-22T00:07:23;8.57;;;7.82;;
46022;SDS011;31756;47.936;16.224;2022-07-22T00:09:48;10.15;;;9.32;;
46022;SDS011;31756;47.936;16.224;2022-07-22T00:12:13;9.57;;;8.68;;
46022;SDS011;31756;47.936;16.224;2022-07-22T00:14:39;10.40;;;9.43;;
46022;SDS011;31756;47.936;16.224;2022-07-22T00:17:04;10.15;;;9.15;;
46022;SDS011;31756;47.936;16.224;2022-07-22T00:19:29;10.13;;;9.13;;
46022;SDS011;31756;47.936;16.224;2022-07-22T00:21:54;12.05;;;10.07;;
46022;SDS011;31756;47.936;16.224;2022-07-22T00:24:20;9.90;;;8.93;;
46022;SDS011;31756;47.936;16.224;2022-07-22T00:26:45;9.57;;;8.68;;
46022;SDS011;31756;47.936;16.224;2022-07-22T00:29:10;10.18;;;9.20;;
46022;SDS011;31756;47.936;16.224;2022-07-22T00:31:35;9.23;;;8.32;;
46022;SDS011;31756;47.936;16.224;2022-07-22T00:34:01;10.43;;;9.48;;
46022;SDS011;31756;47.936;16.224;2022-07-22T00:36:27;10.43;;;9.45;;
46022;SDS011;31756;47.936;16.224;2022-07-22T00:38:52;9.00;;;8.20;;
46022;SDS011;31756;47.936;16.224;2022-07-22T00:41:17;9.88;;;8.98;;
46022;SDS011;31756;47.936;16.224;2022-07-22T00:43:53;10.65;;;9.63;;
46022;SDS011;31756;47.936;16.224;2022-07-22T00:46:19;10.80;;;9.70;;
46022;SDS011;31756;47.936;16.224;2022-07-22T00:48:44;9.90;;;9.00;;
46022;SDS011;31756;47.936;16.224;2022-07-22T00:51:09;10.98;;;9.98;;
46022;SDS011;31756;47.936;16.224;2022-07-22T00:53:35;10.35;;;9.45;;
46022;SDS011;31756;47.936;16.224;2022-07-22T00:56:01;10.32;;;9.52;;
46022;SDS011;31756;47.936;16.224;2022-07-22T00:58:26;9.90;;;9.02;;
46022;SDS011;31756;47.936;16.224;2022-07-22T01:00:51;9.57;;;8.65;;
46022;SDS011;31756;47.936;16.224;2022-07-22T01:03:17;10.05;;;9.05;;
46022;SDS011;31756;47.936;16.224;2022-07-22T01:05:42;10.25;;;9.35;;
46022;SDS011;31756;47.936;16.224;2022-07-22T01:08:07;9.70;;;8.80;;
46022;SDS011;31756;47.936;16.224;2022-07-22T01:10:33;10.00;;;9.18;;
46022;SDS011;31756;47.936;16.224;2022-07-22T01:12:58;10.90;;;9.77;;
46022;SDS011;31756;47.936;16.224;2022-07-22T01:15:23;9.32;;;8.38;;
46022;SDS011;31756;47.936;16.224;2022-07-22T01:17:48;9.98;;;9.07;;
46022;SDS011;31756;47.936;16.224;2022-07-22T01:20:14;9.90;;;9.00;;
46022;SDS011;31756;47.936;16.224;2022-07-22T01:22:39;9.30;;;8.48;;
46022;SDS011;31756;47.936;16.224;2022-07-22T01:25:05;10.43;;;9.63;;
46022;SDS011;31756;47.936;16.224;2022-07-22T01:27:30;10.10;;;9.20;;
46022;SDS011;31756;47.936;16.224;2022-07-22T01:29:55;10.23;;;8.98;;
46022;SDS011;31756;47.936;16.224;2022-07-22T01:32:21;10.05;;;9.05;;
46022;SDS011;31756;47.936;16.224;2022-07-22T01:34:46;9.45;;;8.55;;
46022;SDS011;31756;47.936;16.224;2022-07-22T01:37:11;10.55;;;9.55;;
46022;SDS011;31756;47.936;16.224;2022-07-22T01:39:36;9.85;;;9.05;;
46022;SDS011;31756;47.936;16.224;2022-07-22T01:42:02;9.48;;;8.68;;
46022;SDS011;31756;47.936;16.224;2022-07-22T01:44:27;10.35;;;9.45;;
46022;SDS011;31756;47.936;16.224;2022-07-22T01:46:54;9.18;;;8.27;;
46022;SDS011;31756;47.936;16.224;2022-07-22T01:49:20;9.82;;;8.88;;
46022;SDS011;31756;47.936;16.224;2022-07-22T01:51:46;9.77;;;8.88;;
46022;SDS011;31756;47.936;16.224;2022-07-22T01:54:11;10.40;;;9.40;;
46022;SDS011;31756;47.936;16.224;2022-07-22T01:56:37;9.63;;;8.77;;
46022;SDS011;31756;47.936;16.224;2022-07-22T01:59:02;10.73;;;9.73;;
46022;SDS011;31756;47.936;16.224;2022-07-22T02:01:27;10.90;;;10.00;;
46022;SDS011;31756;47.936;16.224;2022-07-22T02:03:52;9.85;;;9.05;;
46022;SDS011;31756;47.936;16.224;2022-07-22T02:06:18;10.48;;;9.57;;
46022;SDS011;31756;47.936;16.224;2022-07-22T02:08:43;10.75;;;9.85;;
46022;SDS011;31756;47.936;16.224;2022-07-22T02:11:08;11.90;;;10.68;;
46022;SDS011;31756;47.936;16.224;2022-07-22T02:13:34;10.88;;;9.90;;
46022;SDS011;31756;47.936;16.224;2022-07-22T02:15:59;11.27;;;10.15;;
46022;SDS011;31756;47.936;16.224;2022-07-22T02:18:24;11.88;;;10.88;;
46022;SDS011;31756;47.936;16.224;2022-07-22T02:20:50;10.82;;;9.82;;
46022;SDS011;31756;47.936;16.224;2022-07-22T02:23:15;10.25;;;9.35;;
46022;SDS011;31756;47.936;16.224;2022-07-22T02:25:42;10.57;;;9.68;;
46022;SDS011;31756;47.936;16.224;2022-07-22T02:28:07;10.77;;;9.77;;
46022;SDS011;31756;47.936;16.224;2022-07-22T02:30:32;10.68;;;9.88;;
46022;SDS011;31756;47.936;16.224;2022-07-22T02:32:58;11.68;;;10.45;;
46022;SDS011;31756;47.936;16.224;2022-07-22T02:35:23;10.65;;;9.75;;
46022;SDS011;31756;47.936;16.224;2022-07-22T02:37:48;10.10;;;9.10;;
46022;SDS011;31756;47.936;16.224;2022-07-22T02:40:13;12.50;;;11.27;;
46022;SDS011;31756;47.936;16.224;2022-07-22T02:42:39;12.45;;;9.57;;
46022;SDS011;31756;47.936;16.224;2022-07-22T02:45:04;10.52;;;9.68;;
46022;SDS011;31756;47.936;16.224;2022-07-22T02:47:30;11.48;;;10.38;;
46022;SDS011;31756;47.936;16.224;2022-07-22T02:49:55;11.60;;;10.23;;
46022;SDS011;31756;47.936;16.224;2022-07-22T02:52:20;10.65;;;9.73;;
46022;SDS011;31756;47.936;16.224;2022-07-22T02:54:45;11.50;;;10.45;;
46022;SDS011;31756;47.936;16.224;2022-07-22T02:57:11;11.35;;;10.43;;
46022;SDS011;31756;47.936;16.224;2022-07-22T02:59:36;11.10;;;10.15;;
46022;SDS011;31756;47.936;16.224;2022-07-22T03:02:01;10.57;;;9.75;;
46022;SDS011;31756;47.936;16.224;2022-07-22T03:04:26;11.88;;;10.70;;
46022;SDS011;31756;47.936;16.224;2022-07-22T03:06:52;11.57;;;10.52;;
46022;SDS011;31756;47.936;16.224;2022-07-22T03:09:17;12.20;;;10.13;;
46022;SDS011;31756;47.936;16.224;2022-07-22T03:11:42;11.75;;;10.43;;
46022;SDS011;31756;47.936;16.224;2022-07-22T03:14:08;12.50;;;11.20;;
46022;SDS011;31756;47.936;16.224;2022-07-22T03:16:33;11.45;;;10.00;;
46022;SDS011;31756;47.936;16.224;2022-07-22T03:18:58;11.52;;;10.35;;
46022;SDS011;31756;47.936;16.224;2022-07-22T03:21:23;12.63;;;11.07;;
46022;SDS011;31756;47.936;16.224;2022-07-22T03:23:49;10.45;;;9.57;;
46022;SDS011;31756;47.936;16.224;2022-07-22T03:26:18;11.20;;;10.10;;
46022;SDS011;31756;47.936;16.224;2022-07-22T03:28:43;12.88;;;10.60;;
46022;SDS011;31756;47.936;16.224;2022-07-22T03:31:09;12.13;;;10.48;;
46022;SDS011;31756;47.936;16.224;2022-07-22T03:33:34;11.43;;;10.43;;
46022;SDS011;31756;47.936;16.224;2022-07-22T03:35:59;11.68;;;10.57;;
46022;SDS011;31756;47.936;16.224;2022-07-22T03:38:24;11.00;;;10.10;;
46022;SDS011;31756;47.936;16.224;2022-07-22T03:40:50;10.85;;;9.93;;
46022;SDS011;31756;47.936;16.224;2022-07-22T03:43:15;11.88;;;10.57;;
46022;SDS011;31756;47.936;16.224;2022-07-22T03:45:40;22.02;;;10.35;;
46022;SDS011;31756;47.936;16.224;2022-07-22T03:48:05;11.23;;;10.02;;
46022;SDS011;31756;47.936;16.224;2022-07-22T03:50:31;10.90;;;9.90;;
46022;SDS011;31756;47.936;16.224;2022-07-22T03:52:56;13.07;;;11.65;;
46022;SDS011;31756;47.936;16.224;2022-07-22T03:55:21;10.73;;;9.73;;
46022;SDS011;31756;47.936;16.224;2022-07-22T03:57:46;11.60;;;10.50;;
46022;SDS011;31756;47.936;16.224;2022-07-22T04:00:12;11.48;;;10.35;;
46022;SDS011;31756;47.936;16.224;2022-07-22T04:02:37;11.38;;;10.40;;
46022;SDS011;31756;47.936;16.224;2022-07-22T04:05:02;10.77;;;9.80;;
46022;SDS011;31756;47.936;16.224;2022-07-22T04:07:28;10.80;;;9.82;;
46022;SDS011;31756;47.936;16.224;2022-07-22T04:09:53;12.13;;;10.98;;
46022;SDS011;31756;47.936;16.224;2022-07-22T04:12:29;11.48;;;9.93;;
46022;SDS011;31756;47.936;16.224;2022-07-22T04:14:55;11.13;;;10.20;;
46022;SDS011;31756;47.936;16.224;2022-07-22T04:17:20;10.85;;;9.90;;
46022;SDS011;31756;47.936;16.224;2022-07-22T04:19:45;11.77;;;10.57;;
46022;SDS011;31756;47.936;16.224;2022-07-22T04:22:10;13.40;;;10.35;;
46022;SDS011;31756;47.936;16.224;2022-07-22T04:24:35;10.27;;;9.27;;
46022;SDS011;31756;47.936;16.224;2022-07-22T04:27:01;10.40;;;9.50;;
46022;SDS011;31756;47.936;16.224;2022-07-22T04:29:26;11.70;;;10.60;;
46022;SDS011;31756;47.936;16.224;2022-07-22T04:31:51;11.00;;;9.90;;
46022;SDS011;31756;47.936;16.224;2022-07-22T04:34:17;11.43;;;10.32;;
46022;SDS011;31756;47.936;16.224;2022-07-22T04:36:43;11.15;;;10.13;;
46022;SDS011;31756;47.936;16.224;2022-07-22T04:39:08;11.00;;;10.10;;
46022;SDS011;31756;47.936;16.224;2022-07-22T04:41:34;10.18;;;9.38;;
46022;SDS011;31756;47.936;16.224;2022-07-22T04:43:59;11.75;;;10.57;;
46022;SDS011;31756;47.936;16.224;2022-07-22T04:46:24;10.63;;;9.65;;
46022;SDS011;31756;47.936;16.224;2022-07-22T04:48:49;9.63;;;8.75;;
46022;SDS011;31756;47.936;16.224;2022-07-22T04:51:14;11.27;;;10.25;;
46022;SDS011;31756;47.936;16.224;2022-07-22T04:53:40;10.95;;;10.05;;
46022;SDS011;31756;47.936;16.224;2022-07-22T04:56:05;10.23;;;9.25;;
46022;SDS011;31756;47.936;16.224;2022-07-22T04:58:30;11.30;;;9.43;;
46022;SDS011;31756;47.936;16.224;2022-07-22T05:00:56;12.57;;;10.38;;
46022;SDS011;31756;47.936;16.224;2022-07-22T05:03:21;10.20;;;9.27;;
46022;SDS011;31756;47.936;16.224;2022-07-22T05:05:46;10.30;;;9.27;;
46022;SDS011;31756;47.936;16.224;2022-07-22T05:08:11;10.15;;;9.23;;
46022;SDS011;31756;47.936;16.224;2022-07-22T05:10:37;10.30;;;9.40;;
46022;SDS011;31756;47.936;16.224;2022-07-22T05:13:02;9.43;;;8.63;;
46022;SDS011;31756;47.936;16.224;2022-07-22T05:15:27;13.40;;;9.25;;
46022;SDS011;31756;47.936;16.224;2022-07-22T05:17:53;9.50;;;8.68;;
46022;SDS011;31756;47.936;16.224;2022-07-22T05:20:18;9.95;;;8.95;;
46022;SDS011;31756;47.936;16.224;2022-07-22T05:22:43;9.25;;;8.48;;
46022;SDS011;31756;47.936;16.224;2022-07-22T05:25:08;9.07;;;8.35;;
46022;SDS011;31756;47.936;16.224;2022-07-22T05:27:34;9.75;;;8.95;;
46022;SDS011;31756;47.936;16.224;2022-07-22T05:29:59;10.00;;;9.10;;
46022;SDS011;31756;47.936;16.224;2022-07-22T05:32:24;9.50;;;8.70;;
46022;SDS011;31756;47.936;16.224;2022-07-22T05:34:50;9.40;;;8.57;;
46022;SDS011;31756;47.936;16.224;2022-07-22T05:37:15;8.90;;;8.20;;
46022;SDS011;31756;47.936;16.224;2022-07-22T05:39:41;12.07;;;9.07;;
46022;SDS011;31756;47.936;16.224;2022-07-22T05:42:07;9.55;;;8.60;;
46022;SDS011;31756;47.936;16.224;2022-07-22T05:44:32;9.07;;;8.38;;
46022;SDS011;31756;47.936;16.224;2022-07-22T05:46:57;9.02;;;8.23;;
46022;SDS011;31756;47.936;16.224;2022-07-22T05:49:22;9.15;;;7.72;;
46022;SDS011;31756;47.936;16.224;2022-07-22T05:51:49;9.18;;;7.82;;
46022;SDS011;31756;47.936;16.224;2022-07-22T05:54:15;8.65;;;7.95;;
46022;SDS011;31756;47.936;16.224;2022-07-22T05:56:40;9.73;;;8.93;;
46022;SDS011;31756;47.936;16.224;2022-07-22T05:59:05;9.38;;;8.48;;
46022;SDS011;31756;47.936;16.224;2022-07-22T06:01:30;9.55;;;7.75;;
46022;SDS011;31756;47.936;16.224;2022-07-22T06:03:56;9.57;;;8.60;;
46022;SDS011;31756;47.936;16.224;2022-07-22T06:06:21;8.75;;;8.05;;
46022;SDS011;31756;47.936;16.224;2022-07-22T06:08:46;9.60;;;8.75;;
46022;SDS011;31756;47.936;16.224;2022-07-22T06:11:11;11.32;;;8.75;;
46022;SDS011;31756;47.936;16.224;2022-07-22T06:13:37;9.02;;;8.23;;
46022;SDS011;31756;47.936;16.224;2022-07-22T06:16:02;9.30;;;8.50;;
46022;SDS011;31756;47.936;16.224;2022-07-22T06:18:28;9.95;;;9.15;;
46022;SDS011;31756;47.936;16.224;2022-07-22T06:20:53;9.50;;;8.73;;
46022;SDS011;31756;47.936;16.224;2022-07-22T06:23:18;10.07;;;9.27;;
46022;SDS011;31756;47.936;16.224;2022-07-22T06:25:44;10.65;;;9.63;;
46022;SDS011;31756;47.936;16.224;2022-07-22T06:28:09;9.43;;;8.57;;
46022;SDS011;31756;47.936;16.224;2022-07-22T06:30:35;10.63;;;9.73;;
46022;SDS011;31756;47.936;16.224;2022-07-22T06:33:01;10.30;;;9.30;;
46022;SDS011;31756;47.936;16.224;2022-07-22T06:35:27;9.88;;;8.88;;
46022;SDS011;31756;47.936;16.224;2022-07-22T06:37:52;10.68;;;9.77;;
46022;SDS011;31756;47.936;16.224;2022-07-22T06:40:17;10.13;;;9.32;;
46022;SDS011;31756;47.936;16.224;2022-07-22T06:42:43;9.80;;;9.07;;
46022;SDS011;31756;47.936;16.224;2022-07-22T06:45:08;11.07;;;10.18;;
46022;SDS011;31756;47.936;16.224;2022-07-22T06:47:33;11.10;;;10.13;;
46022;SDS011;31756;47.936;16.224;2022-07-22T06:50:01;10.88;;;9.90;;
46022;SDS011;31756;47.936;16.224;2022-07-22T06:52:27;13.95;;;10.68;;
46022;SDS011;31756;47.936;16.224;2022-07-22T06:54:52;11.68;;;9.68;;
46022;SDS011;31756;47.936;16.224;2022-07-22T06:57:18;10.23;;;9.23;;
46022;SDS011;31756;47.936;16.224;2022-07-22T06:59:43;11.32;;;10.27;;
46022;SDS011;31756;47.936;16.224;2022-07-22T07:02:08;10.35;;;9.57;;
46022;SDS011;31756;47.936;16.224;2022-07-22T07:04:34;10.38;;;9.52;;
46022;SDS011;31756;47.936;16.224;2022-07-22T07:06:59;11.13;;;10.23;;
46022;SDS011;31756;47.936;16.224;2022-07-22T07:09:24;10.32;;;9.52;;
46022;SDS011;31756;47.936;16.224;2022-07-22T07:11:49;9.93;;;9.23;;
46022;SDS011;31756;47.936;16.224;2022-07-22T07:14:15;9.98;;;8.98;;
46022;SDS011;31756;47.936;16.224;2022-07-22T07:16:40;10.75;;;9.75;;
46022;SDS011;31756;47.936;16.224;2022-07-22T07:19:05;10.45;;;9.55;;
46022;SDS011;31756;47.936;16.224;2022-07-22T07:21:30;11.23;;;10.27;;
46022;SDS011;31756;47.936;16.224;2022-07-22T07:23:56;10.75;;;9.70;;
46022;SDS011;31756;47.936;16.224;2022-07-22T07:26:21;12.63;;;10.20;;
46022;SDS011;31756;47.936;16.224;2022-07-22T07:28:46;10.80;;;10.00;;
46022;SDS011;31756;47.936;16.224;2022-07-22T07:31:12;11.32;;;10.40;;
46022;SDS011;31756;47.936;16.224;2022-07-22T07:33:37;10.75;;;9.88;;
46022;SDS011;31756;47.936;16.224;2022-07-22T07:36:02;10.82;;;9.95;;
46022;SDS011;31756;47.936;16.224;2022-07-22T07:38:27;11.30;;;10.32;;
46022;SDS011;31756;47.936;16.224;2022-07-22T07:40:53;11.63;;;10.63;;
46022;SDS011;31756;47.936;16.224;2022-07-22T07:43:18;11.57;;;10.68;;
46022;SDS011;31756;47.936;16.224;2022-07-22T07:45:43;11.45;;;10.55;;
46022;SDS011;31756;47.936;16.224;2022-07-22T07:48:09;10.82;;;10.02;;
46022;SDS011;31756;47.936;16.224;2022-07-22T07:50:34;9.95;;;9.05;;
46022;SDS011;31756;47.936;16.224;2022-07-22T07:53:00;10.93;;;9.82;;
46022;SDS011;31756;47.936;16.224;2022-07-22T07:55:25;10.80;;;9.90;;
46022;SDS011;31756;47.936;16.224;2022-07-22T07:57:50;9.18;;;8.57;;
46022;SDS011;31756;47.936;16.224;2022-07-22T08:00:17;10.80;;;10.00;;
46022;SDS011;31756;47.936;16.224;2022-07-22T08:02:43;11.68;;;10.55;;
46022;SDS011;31756;47.936;16.224;2022-07-22T08:05:08;10.68;;;9.73;;
46022;SDS011;31756;47.936;16.224;2022-07-22T08:07:34;10.23;;;9.32;;
46022;SDS011;31756;47.936;16.224;2022-07-22T08:09:59;11.25;;;10.30;;
46022;SDS011;31756;47.936;16.224;2022-07-22T08:12:24;10.77;;;9.90;;
46022;SDS011;31756;47.936;16.224;2022-07-22T08:14:50;9.65;;;8.73;;
46022;SDS011;31756;47.936;16.224;2022-07-22T08:17:15;10.38;;;9.57;;
46022;SDS011;31756;47.936;16.224;2022-07-22T08:19:40;10.60;;;9.70;;
46022;SDS011;31756;47.936;16.224;2022-07-22T08:22:06;10.68;;;9.88;;
46022;SDS011;31756;47.936;16.224;2022-07-22T08:24:31;9.88;;;9.18;;
46022;SDS011;31756;47.936;16.224;2022-07-22T08:26:56;10.88;;;10.05;;
46022;SDS011;31756;47.936;16.224;2022-07-22T08:29:21;9.77;;;8.88;;
46022;SDS011;31756;47.936;16.224;2022-07-22T08:31:47;10.63;;;9.63;;
46022;SDS011;31756;47.936;16.224;2022-07-22T08:34:12;11.05;;;9.40;;
46022;SDS011;31756;47.936;16.224;2022-07-22T08:36:37;9.70;;;9.00;;
46022;SDS011;31756;47.936;16.224;2022-07-22T08:39:03;11.13;;;10.32;;
46022;SDS011;31756;47.936;16.224;2022-07-22T08:41:28;10.25;;;9.45;;
46022;SDS011;31756;47.936;16.224;2022-07-22T08:43:58;9.40;;;8.80;;
46022;SDS011;31756;47.936;16.224;2022-07-22T08:46:23;10.43;;;9.52;;
46022;SDS011;31756;47.936;16.224;2022-07-22T08:48:49;10.52;;;9.75;;
46022;SDS011;31756;47.936;16.224;2022-07-22T08:51:14;10.52;;;9.77;;
46022;SDS011;31756;47.936;16.224;2022-07-22T08:53:39;11.38;;;10.15;;
46022;SDS011;31756;47.936;16.224;2022-07-22T08:56:05;10.73;;;9.85;;
46022;SDS011;31756;47.936;16.224;2022-07-22T08:58:31;11.00;;;9.95;;
46022;SDS011;31756;47.936;16.224;2022-07-22T09:05:56;10.20;;;9.30;;
46022;SDS011;31756;47.936;16.224;2022-07-22T09:08:21;10.50;;;9.70;;
46022;SDS011;31756;47.936;16.224;2022-07-22T09:10:47;11.13;;;10.23;;
46022;SDS011;31756;47.936;16.224;2022-07-22T09:13:13;13.13;;;11.90;;
46022;SDS011;31756;47.936;16.224;2022-07-22T09:15:45;13.85;;;12.52;;
46022;SDS011;31756;47.936;16.224;2022-07-22T09:18:11;10.43;;;9.63;;
46022;SDS011;31756;47.936;16.224;2022-07-22T09:20:36;9.85;;;9.18;;
46022;SDS011;31756;47.936;16.224;2022-07-22T09:23:08;11.65;;;10.65;;
46022;SDS011;31756;47.936;16.224;2022-07-22T09:25:35;10.85;;;9.95;;
46022;SDS011;31756;47.936;16.224;2022-07-22T09:30:51;11.23;;;10.30;;
46022;SDS011;31756;47.936;16.224;2022-07-22T09:33:17;11.18;;;10.27;;
46022;SDS011;31756;47.936;16.224;2022-07-22T09:35:42;10.80;;;9.93;;
46022;SDS011;31756;47.936;16.224;2022-07-22T09:38:09;11.38;;;10.38;;
46022;SDS011;31756;47.936;16.224;2022-07-22T09:40:35;11.68;;;10.50;;
46022;SDS011;31756;47.936;16.224;2022-07-22T09:43:04;11.90;;;10.85;;
46022;SDS011;31756;47.936;16.224;2022-07-22T09:45:30;12.00;;;10.88;;
46022;SDS011;31756;47.936;16.224;2022-07-22T09:47:57;10.32;;;9.38;;
46022;SDS011;31756;47.936;16.224;2022-07-22T09:50:26;10.68;;;9.88;;
46022;SDS011;31756;47.936;16.224;2022-07-22T09:52:52;11.10;;;10.25;;
46022;SDS011;31756;47.936;16.224;2022-07-22T09:55:19;11.65;;;10.57;;
46022;SDS011;31756;47.936;16.224;2022-07-22T09:57:45;11.68;;;10.77;;
46022;SDS011;31756;47.936;16.224;2022-07-22T10:00:11;12.55;;;10.10;;
46022;SDS011;31756;47.936;16.224;2022-07-22T10:02:42;12.27;;;11.13;;
46022;SDS011;31756;47.936;16.224;2022-07-22T10:05:10;11.32;;;10.52;;
46022;SDS011;31756;47.936;16.224;2022-07-22T10:07:36;11.80;;;10.82;;
46022;SDS011;31756;47.936;16.224;2022-07-22T10:10:02;12.10;;;11.13;;
46022;SDS011;31756;47.936;16.224;2022-07-22T10:12:28;10.38;;;9.57;;
46022;SDS011;31756;47.936;16.224;2022-07-22T10:14:55;11.27;;;10.45;;
46022;SDS011;31756;47.936;16.224;2022-07-22T10:17:20;12.02;;;10.85;;
46022;SDS011;31756;47.936;16.224;2022-07-22T10:19:46;12.10;;;10.82;;
46022;SDS011;31756;47.936;16.224;2022-07-22T10:25:01;10.85;;;10.05;;
46022;SDS011;31756;47.936;16.224;2022-07-22T10:27:43;10.93;;;10.13;;
46022;SDS011;31756;47.936;16.224;2022-07-22T10:30:09;11.50;;;10.60;;
46022;SDS011;31756;47.936;16.224;2022-07-22T10:32:34;12.82;;;11.52;;
46022;SDS011;31756;47.936;16.224;2022-07-22T10:40:18;13.13;;;11.73;;
46022;SDS011;31756;47.936;16.224;2022-07-22T10:45:41;12.15;;;11.35;;
46022;SDS011;31756;47.936;16.224;2022-07-22T10:48:11;12.32;;;11.35;;
46022;SDS011;31756;47.936;16.224;2022-07-22T10:53:16;11.73;;;10.75;;
46022;SDS011;31756;47.936;16.224;2022-07-22T10:58:46;11.85;;;10.80;;
46022;SDS011;31756;47.936;16.224;2022-07-22T11:01:13;12.30;;;11.25;;
46022;SDS011;31756;47.936;16.224;2022-07-22T11:03:39;11.15;;;10.30;;
46022;SDS011;31756;47.936;16.224;2022-07-22T11:06:39;12.05;;;11.20;;
46022;SDS011;31756;47.936;16.224;2022-07-22T11:08:58;11.40;;;10.50;;
46022;SDS011;31756;47.936;16.224;2022-07-22T11:11:31;12.07;;;10.98;;
46022;SDS011;31756;47.936;16.224;2022-07-22T11:13:57;12.05;;;11.05;;
46022;SDS011;31756;47.936;16.224;2022-07-22T11:16:23;11.73;;;10.68;;
46022;SDS011;31756;47.936;16.224;2022-07-22T11:21:18;12.50;;;11.60;;
46022;SDS011;31756;47.936;16.224;2022-07-22T11:23:43;11.82;;;10.93;;
46022;SDS011;31756;47.936;16.224;2022-07-22T11:26:09;11.75;;;10.85;;
46022;SDS011;31756;47.936;16.224;2022-07-22T11:28:42;11.73;;;10.68;;
46022;SDS011;31756;47.936;16.224;2022-07-22T11:31:08;12.95;;;11.90;;
46022;SDS011;31756;47.936;16.224;2022-07-22T11:33:33;12.10;;;11.20;;
46022;SDS011;31756;47.936;16.224;2022-07-22T11:36:03;12.30;;;11.48;;
46022;SDS011;31756;47.936;16.224;2022-07-22T11:38:49;12.75;;;11.55;;
46022;SDS011;31756;47.936;16.224;2022-07-22T11:41:16;11.48;;;10.57;;
46022;SDS011;31756;47.936;16.224;2022-07-22T11:43:48;11.13;;;10.23;;
46022;SDS011;31756;47.936;16.224;2022-07-22T11:46:16;12.82;;;11.48;;
46022;SDS011;31756;47.936;16.224;2022-07-22T11:48:42;12.70;;;11.80;;
46022;SDS011;31756;47.936;16.224;2022-07-22T11:51:08;12.18;;;10.93;;
46022;SDS011;31756;47.936;16.224;2022-07-22T11:53:35;13.07;;;12.05;;
46022;SDS011;31756;47.936;16.224;2022-07-22T11:56:00;12.10;;;11.20;;
46022;SDS011;31756;47.936;16.224;2022-07-22T11:58:42;11.95;;;10.95;;
46022;SDS011;31756;47.936;16.224;2022-07-22T12:01:08;11.57;;;10.57;;
46022;SDS011;31756;47.936;16.224;2022-07-22T12:03:37;11.20;;;10.25;;
46022;SDS011;31756;47.936;16.224;2022-07-22T12:06:04;11.25;;;10.40;;
46022;SDS011;31756;47.936;16.224;2022-07-22T12:08:29;11.82;;;10.88;;
46022;SDS011;31756;47.936;16.224;2022-07-22T12:10:56;13.05;;;10.30;;
46022;SDS011;31756;47.936;16.224;2022-07-22T12:13:22;10.73;;;10.02;;
46022;SDS011;31756;47.936;16.224;2022-07-22T12:15:52;12.40;;;11.40;;
46022;SDS011;31756;47.936;16.224;2022-07-22T12:18:18;10.48;;;9.70;;
46022;SDS011;31756;47.936;16.224;2022-07-22T12:20:45;11.13;;;10.20;;
46022;SDS011;31756;47.936;16.224;2022-07-22T12:23:11;11.43;;;10.30;;
46022;SDS011;31756;47.936;16.224;2022-07-22T12:25:49;11.52;;;10.73;;
46022;SDS011;31756;47.936;16.224;2022-07-22T12:28:14;11.55;;;10.32;;
46022;SDS011;31756;47.936;16.224;2022-07-22T12:30:39;10.85;;;10.02;;
46022;SDS011;31756;47.936;16.224;2022-07-22T12:33:12;11.05;;;10.20;;
46022;SDS011;31756;47.936;16.224;2022-07-22T12:35:37;11.55;;;10.65;;
46022;SDS011;31756;47.936;16.224;2022-07-22T12:38:06;10.90;;;10.13;;
46022;SDS011;31756;47.936;16.224;2022-07-22T12:40:31;11.45;;;10.45;;
46022;SDS011;31756;47.936;16.224;2022-07-22T12:43:00;10.82;;;9.93;;
46022;SDS011;31756;47.936;16.224;2022-07-22T12:45:26;10.15;;;9.38;;
46022;SDS011;31756;47.936;16.224;2022-07-22T12:50:32;11.43;;;10.43;;
46022;SDS011;31756;47.936;16.224;2022-07-22T12:52:59;10.45;;;9.65;;
46022;SDS011;31756;47.936;16.224;2022-07-22T12:55:25;10.75;;;9.77;;
46022;SDS011;31756;47.936;16.224;2022-07-22T12:57:51;10.45;;;9.55;;
46022;SDS011;31756;47.936;16.224;2022-07-22T13:00:29;11.35;;;9.93;;
46022;SDS011;31756;47.936;16.224;2022-07-22T13:02:55;10.05;;;9.35;;
46022;SDS011;31756;47.936;16.224;2022-07-22T13:05:21;9.88;;;9.07;;
46022;SDS011;31756;47.936;16.224;2022-07-22T13:07:47;10.23;;;9.52;;
46022;SDS011;31756;47.936;16.224;2022-07-22T13:10:13;12.10;;;11.15;;
46022;SDS011;31756;47.936;16.224;2022-07-22T13:12:38;11.73;;;10.85;;
46022;SDS011;31756;47.936;16.224;2022-07-22T13:15:04;11.43;;;10.32;;
46022;SDS011;31756;47.936;16.224;2022-07-22T13:17:30;10.95;;;10.18;;
46022;SDS011;31756;47.936;16.224;2022-07-22T13:19:55;10.48;;;9.57;;
46022;SDS011;31756;47.936;16.224;2022-07-22T13:22:20;12.13;;;11.20;;
46022;SDS011;31756;47.936;16.224;2022-07-22T13:24:46;10.65;;;9.80;;
46022;SDS011;31756;47.936;16.224;2022-07-22T13:27:11;11.05;;;10.20;;
46022;SDS011;31756;47.936;16.224;2022-07-22T13:29:36;10.30;;;9.57;;
46022;SDS011;31756;47.936;16.224;2022-07-22T13:32:01;11.65;;;10.20;;
46022;SDS011;31756;47.936;16.224;2022-07-22T13:34:27;11.30;;;10.35;;
46022;SDS011;31756;47.936;16.224;2022-07-22T13:36:52;12.35;;;10.60;;
46022;SDS011;31756;47.936;16.224;2022-07-22T13:39:17;11.38;;;10.57;;
46022;SDS011;31756;47.936;16.224;2022-07-22T13:41:43;12.00;;;11.05;;
46022;SDS011;31756;47.936;16.224;2022-07-22T13:44:08;11.35;;;10.43;;
46022;SDS011;31756;47.936;16.224;2022-07-22T13:46:36;11.75;;;10.70;;
46022;SDS011;31756;47.936;16.224;2022-07-22T13:49:01;12.35;;;11.05;;
46022;SDS011;31756;47.936;16.224;2022-07-22T13:51:27;10.88;;;10.02;;
46022;SDS011;31756;47.936;16.224;2022-07-22T13:53:52;10.93;;;10.13;;
46022;SDS011;31756;47.936;16.224;2022-07-22T13:56:17;11.00;;;10.10;;
46022;SDS011;31756;47.936;16.224;2022-07-22T13:58:43;10.27;;;9.52;;
46022;SDS011;31756;47.936;16.224;2022-07-22T14:01:08;11.32;;;10.32;;
46022;SDS011;31756;47.936;16.224;2022-07-22T14:03:34;10.80;;;9.95;;
46022;SDS011;31756;47.936;16.224;2022-07-22T14:06:00;10.18;;;9.38;;
46022;SDS011;31756;47.936;16.224;2022-07-22T14:08:25;10.17;;;9.27;;
46022;SDS011;31756;47.936;16.224;2022-07-22T14:10:50;11.18;;;10.25;;
46022;SDS011;31756;47.936;16.224;2022-07-22T14:13:15;10.68;;;9.75;;
46022;SDS011;31756;47.936;16.224;2022-07-22T14:15:41;10.07;;;9.23;;
46022;SDS011;31756;47.936;16.224;2022-07-22T14:18:06;10.30;;;9.50;;
46022;SDS011;31756;47.936;16.224;2022-07-22T14:20:32;11.60;;;10.60;;
46022;SDS011;31756;47.936;16.224;2022-07-22T14:22:57;10.57;;;9.52;;
46022;SDS011;31756;47.936;16.224;2022-07-22T14:25:23;10.40;;;9.47;;
46022;SDS011;31756;47.936;16.224;2022-07-22T14:27:48;9.57;;;8.57;;
46022;SDS011;31756;47.936;16.224;2022-07-22T14:30:14;11.02;;;10.25;;
46022;SDS011;31756;47.936;16.224;2022-07-22T14:32:39;9.82;;;9.02;;
46022;SDS011;31756;47.936;16.224;2022-07-22T14:35:04;11.10;;;10.13;;
46022;SDS011;31756;47.936;16.224;2022-07-22T14:37:31;9.25;;;8.65;;
46022;SDS011;31756;47.936;16.224;2022-07-22T14:39:56;10.18;;;9.27;;